Time;durP1;ratioP1;P1;durP2;ratioP2;P2;SDS_P1;SDS_P2;PMS_P1;PMS_P2;Temp;Humidity;BMP_temperature;BMP_pressure;BME280_temperature;BME280_humidity;BME280_pressure;Samples;Min_cycle;Max_cycle;Signal;HPM_P1;HPM_P2
2022/12/27 00:00:12;;;;;;;8.40;2.67;;;;;;;;;;5038991;28;20468;-81
2022/12/27 00:02:39;;;;;;;3.80;2.63;;;;;;;;;;5034950;28;20473;-81
2022/12/27 00:05:06;;;;;;;9.23;3.00;;;;;;;;;;5029881;28;20515;-81
2022/12/27 00:07:34;;;;;;;8.60;2.63;;;;;;;;;;5035265;28;20480;-81
2022/12/27 00:10:01;;;;;;;11.77;3.40;;;;;;;;;;5040457;28;20467;-81
2022/12/27 00:12:27;;;;;;;11.03;2.77;;;;;;;;;;5035434;28;20472;-81
2022/12/27 00:14:54;;;;;;;12.90;4.07;;;;;;;;;;5039528;28;20481;-81
2022/12/27 00:17:20;;;;;;;5.20;2.90;;;;;;;;;;5040945;28;20488;-81
2022/12/27 00:19:47;;;;;;;6.50;2.40;;;;;;;;;;5040446;28;20472;-81
2022/12/27 00:22:13;;;;;;;9.27;3.53;;;;;;;;;;5044660;28;20829;-81
2022/12/27 00:24:41;;;;;;;6.40;3.10;;;;;;;;;;5022218;28;20470;-81
2022/12/27 00:27:07;;;;;;;8.77;2.93;;;;;;;;;;5018178;28;20932;-81
2022/12/27 00:29:34;;;;;;;10.13;2.80;;;;;;;;;;5023319;28;20471;-81
2022/12/27 00:32:00;;;;;;;12.20;3.23;;;;;;;;;;5013222;28;20455;-82
2022/12/27 00:34:27;;;;;;;7.10;3.10;;;;;;;;;;5024097;28;20465;-81
2022/12/27 00:36:53;;;;;;;3.57;2.57;;;;;;;;;;5024975;28;20482;-81
2022/12/27 00:39:20;;;;;;;5.73;2.40;;;;;;;;;;5024519;28;20481;-82
2022/12/27 00:41:47;;;;;;;10.30;3.03;;;;;;;;;;5019459;28;20949;-81
2022/12/27 00:44:14;;;;;;;7.80;2.93;;;;;;;;;;5035905;28;20487;-82
2022/12/27 00:46:40;;;;;;;17.20;3.80;;;;;;;;;;5041859;28;20446;-82
2022/12/27 00:49:07;;;;;;;4.90;2.80;;;;;;;;;;5032689;28;20465;-81
2022/12/27 00:51:33;;;;;;;3.73;3.20;;;;;;;;;;5025372;28;20446;-81
2022/12/27 00:53:59;;;;;;;9.23;3.97;;;;;;;;;;5022431;28;20475;-81
2022/12/27 00:56:27;;;;;;;6.00;2.53;;;;;;;;;;5019928;28;20486;-81
2022/12/27 00:58:55;;;;;;;20.63;4.63;;;;;;;;;;5021041;28;20484;-81
2022/12/27 01:01:23;;;;;;;8.80;2.97;;;;;;;;;;5023161;28;20449;-80
2022/12/27 01:03:49;;;;;;;10.80;3.50;;;;;;;;;;5019680;28;20481;-81
2022/12/27 01:06:17;;;;;;;8.67;2.70;;;;;;;;;;5022743;28;20528;-81
2022/12/27 01:08:44;;;;;;;14.33;3.80;;;;;;;;;;5022434;28;20474;-81
2022/12/27 01:11:13;;;;;;;11.33;4.70;;;;;;;;;;5020349;28;20442;-81
2022/12/27 01:13:39;;;;;;;20.00;3.83;;;;;;;;;;5022391;28;20466;-81
2022/12/27 01:16:10;;;;;;;6.07;3.37;;;;;;;;;;5019707;28;20494;-82
2022/12/27 01:18:36;;;;;;;9.63;3.00;;;;;;;;;;5018844;28;20496;-81
2022/12/27 01:21:04;;;;;;;12.30;4.63;;;;;;;;;;5018296;28;20437;-81
2022/12/27 01:23:31;;;;;;;11.60;3.10;;;;;;;;;;5016170;28;20481;-81
2022/12/27 01:25:59;;;;;;;14.97;4.03;;;;;;;;;;5009337;28;20470;-81
2022/12/27 01:28:25;;;;;;;11.40;3.30;;;;;;;;;;5021351;28;20473;-81
2022/12/27 01:30:52;;;;;;;7.50;3.60;;;;;;;;;;5019031;28;20467;-81
2022/12/27 01:33:20;;;;;;;9.53;2.73;;;;;;;;;;5019092;28;22329;-81
2022/12/27 01:35:46;;;;;;;7.93;3.30;;;;;;;;;;5024316;28;20489;-82
2022/12/27 01:38:12;;;;;;;8.90;3.80;;;;;;;;;;5022104;28;20466;-81
2022/12/27 01:40:39;;;;;;;7.90;4.03;;;;;;;;;;5024752;28;20454;-81
2022/12/27 01:43:04;;;;;;;13.43;3.60;;;;;;;;;;5020669;28;20518;-81
2022/12/27 01:45:32;;;;;;;15.23;4.23;;;;;;;;;;5027940;28;20446;-81
2022/12/27 01:48:01;;;;;;;14.33;6.20;;;;;;;;;;5017604;28;20234;-81
2022/12/27 01:50:33;;;;;;;17.93;4.20;;;;;;;;;;5021823;28;20448;-81
2022/12/27 01:53:06;;;;;;;11.23;4.40;;;;;;;;;;5022102;28;20465;-81
2022/12/27 01:55:35;;;;;;;13.40;5.73;;;;;;;;;;5056216;28;20446;-81
2022/12/27 01:58:04;;;;;;;12.97;4.40;;;;;;;;;;5022036;28;20821;-82
2022/12/27 02:00:30;;;;;;;10.70;3.80;;;;;;;;;;5020020;28;20493;-81
2022/12/27 02:02:56;;;;;;;8.90;3.93;;;;;;;;;;5018139;28;20446;-81
2022/12/27 02:05:24;;;;;;;6.90;3.43;;;;;;;;;;5021181;28;20483;-81
2022/12/27 02:07:58;;;;;;;8.90;4.07;;;;;;;;;;5020732;28;20477;-81
2022/12/27 02:10:25;;;;;;;7.53;3.87;;;;;;;;;;5011288;28;20820;-81
2022/12/27 02:12:52;;;;;;;15.87;3.93;;;;;;;;;;5019651;28;20452;-81
2022/12/27 02:15:20;;;;;;;9.47;3.80;;;;;;;;;;5017664;28;20481;-81
2022/12/27 02:17:46;;;;;;;7.47;3.73;;;;;;;;;;5017400;28;20489;-81
2022/12/27 02:20:15;;;;;;;10.57;3.83;;;;;;;;;;5016854;28;20479;-82
2022/12/27 02:25:52;;;;;;;18.17;4.70;;;;;;;;;;5016985;28;20453;-81
2022/12/27 02:28:31;;;;;;;8.93;4.27;;;;;;;;;;5039781;28;21137;-81
2022/12/27 02:31:04;;;;;;;12.00;3.63;;;;;;;;;;5023054;28;20442;-82
2022/12/27 02:33:32;;;;;;;8.03;4.07;;;;;;;;;;5016917;28;20473;-81
2022/12/27 02:36:01;;;;;;;14.67;4.70;;;;;;;;;;5019284;28;20447;-81
2022/12/27 02:38:29;;;;;;;13.53;4.27;;;;;;;;;;5015768;28;20496;-81
2022/12/27 02:55:10;;;;;;;14.07;5.03;;;;;;;;;;5017198;28;20485;-81
2022/12/27 02:57:39;;;;;;;6.47;4.07;;;;;;;;;;5019225;28;20494;-81
2022/12/27 03:08:40;;;;;;;8.40;5.10;;;;;;;;;;5013968;28;20530;-81
2022/12/27 03:16:42;;;;;;;12.87;6.00;;;;;;;;;;5021221;28;20480;-81
2022/12/27 03:19:13;;;;;;;19.23;7.23;;;;;;;;;;5015775;28;20573;-82
2022/12/27 03:27:16;;;;;;;9.40;4.43;;;;;;;;;;5029258;28;20471;-81
2022/12/27 03:35:17;;;;;;;6.60;4.50;;;;;;;;;;5019176;28;20530;-82
2022/12/27 03:38:02;;;;;;;11.20;4.40;;;;;;;;;;5012076;28;20490;-81
2022/12/27 03:40:37;;;;;;;6.60;3.90;;;;;;;;;;5018593;28;20454;-81
2022/12/27 03:43:11;;;;;;;19.63;6.40;;;;;;;;;;5022363;28;20521;-81
2022/12/27 03:48:46;;;;;;;10.17;4.67;;;;;;;;;;5018147;28;20468;-81
2022/12/27 03:51:15;;;;;;;14.37;5.23;;;;;;;;;;5023825;28;20545;-81
2022/12/27 03:53:44;;;;;;;5.20;4.60;;;;;;;;;;5024814;28;20473;-81
2022/12/27 03:56:11;;;;;;;13.73;6.20;;;;;;;;;;5026828;28;20450;-81
2022/12/27 03:58:38;;;;;;;11.43;5.40;;;;;;;;;;5022944;28;20469;-81
2022/12/27 04:01:04;;;;;;;10.00;6.90;;;;;;;;;;5025478;28;20808;-81
2022/12/27 04:03:30;;;;;;;8.80;5.43;;;;;;;;;;5021136;28;20472;-81
2022/12/27 04:05:57;;;;;;;13.47;5.00;;;;;;;;;;5017460;28;20452;-81
2022/12/27 04:35:47;;;;;;;7.63;5.17;;;;;;;;;;5018441;28;20524;-81
2022/12/27 04:38:13;;;;;;;10.07;5.27;;;;;;;;;;5020973;28;20489;-81
2022/12/27 04:57:13;;;;;;;13.37;5.43;;;;;;;;;;5017733;28;20513;-82
2022/12/27 05:02:23;;;;;;;12.50;4.73;;;;;;;;;;5023883;28;20441;-81
2022/12/27 05:04:50;;;;;;;9.00;4.93;;;;;;;;;;5027695;28;20477;-81
2022/12/27 05:15:31;;;;;;;14.00;6.33;;;;;;;;;;5024112;28;20477;-80
2022/12/27 05:17:57;;;;;;;8.17;6.57;;;;;;;;;;5020655;28;20868;-80
2022/12/27 05:20:23;;;;;;;9.63;5.17;;;;;;;;;;5022339;28;20462;-80
2022/12/27 05:25:37;;;;;;;17.00;6.27;;;;;;;;;;5022811;28;20457;-80
2022/12/27 05:28:06;;;;;;;12.03;6.10;;;;;;;;;;5018557;28;20581;-80
2022/12/27 05:30:33;;;;;;;11.60;5.93;;;;;;;;;;5017496;28;20442;-80
2022/12/27 05:32:59;;;;;;;10.10;4.87;;;;;;;;;;5019483;28;20434;-80
2022/12/27 05:35:26;;;;;;;11.80;5.30;;;;;;;;;;5013336;28;20450;-80
2022/12/27 05:37:53;;;;;;;14.93;5.47;;;;;;;;;;5015626;28;20978;-80
2022/12/27 05:40:19;;;;;;;19.77;6.03;;;;;;;;;;5018789;28;20470;-80
2022/12/27 05:42:46;;;;;;;6.70;4.67;;;;;;;;;;5024521;28;20468;-80
2022/12/27 05:45:13;;;;;;;13.10;4.97;;;;;;;;;;5020788;28;20488;-80
2022/12/27 05:47:40;;;;;;;10.77;5.87;;;;;;;;;;5019775;28;20478;-80
2022/12/27 05:50:06;;;;;;;14.13;5.87;;;;;;;;;;5019960;28;20480;-80
2022/12/27 05:52:32;;;;;;;15.00;5.67;;;;;;;;;;5016116;28;20461;-80
2022/12/27 05:54:59;;;;;;;13.33;4.90;;;;;;;;;;5019167;28;20480;-80
2022/12/27 05:57:25;;;;;;;7.50;4.70;;;;;;;;;;5018439;28;20485;-80
2022/12/27 05:59:52;;;;;;;25.80;5.93;;;;;;;;;;5027623;28;20544;-80
2022/12/27 06:02:19;;;;;;;8.57;5.13;;;;;;;;;;5022944;28;20454;-80
2022/12/27 06:04:47;;;;;;;10.30;5.10;;;;;;;;;;5013516;28;20475;-80
2022/12/27 06:07:14;;;;;;;18.50;6.10;;;;;;;;;;5020632;28;20448;-80
2022/12/27 06:09:41;;;;;;;11.60;5.50;;;;;;;;;;5023135;28;20473;-80
2022/12/27 06:12:07;;;;;;;7.73;5.00;;;;;;;;;;5022117;28;20471;-80
2022/12/27 06:14:34;;;;;;;14.20;5.50;;;;;;;;;;5020914;28;20484;-80
2022/12/27 06:17:01;;;;;;;7.23;4.83;;;;;;;;;;5020928;28;20502;-80
2022/12/27 06:19:29;;;;;;;10.60;4.60;;;;;;;;;;5022186;28;20528;-80
2022/12/27 06:21:55;;;;;;;7.20;4.57;;;;;;;;;;5020945;28;20470;-80
2022/12/27 06:24:22;;;;;;;12.80;6.17;;;;;;;;;;5016263;28;20466;-80
2022/12/27 06:26:48;;;;;;;16.07;6.20;;;;;;;;;;5021129;28;20462;-80
2022/12/27 06:29:15;;;;;;;11.47;5.77;;;;;;;;;;5016476;28;20480;-80
2022/12/27 06:31:41;;;;;;;13.60;6.50;;;;;;;;;;5021935;28;20438;-80
2022/12/27 06:34:10;;;;;;;10.20;7.43;;;;;;;;;;5022449;28;20467;-80
2022/12/27 06:36:37;;;;;;;15.60;7.33;;;;;;;;;;5015389;28;20451;-80
2022/12/27 06:39:05;;;;;;;11.23;6.40;;;;;;;;;;5021586;28;20482;-80
2022/12/27 06:41:31;;;;;;;11.33;6.10;;;;;;;;;;5020112;28;20462;-80
2022/12/27 06:43:58;;;;;;;8.87;4.77;;;;;;;;;;5018379;28;20841;-80
2022/12/27 06:46:24;;;;;;;13.33;5.07;;;;;;;;;;5019249;28;20452;-80
2022/12/27 06:48:51;;;;;;;8.83;4.33;;;;;;;;;;5021746;28;20472;-80
2022/12/27 06:51:18;;;;;;;6.17;3.73;;;;;;;;;;5019952;28;20469;-80
2022/12/27 06:53:46;;;;;;;11.70;4.30;;;;;;;;;;5022171;28;20467;-80
2022/12/27 06:56:15;;;;;;;15.97;4.00;;;;;;;;;;5024032;28;20468;-80
2022/12/27 06:58:41;;;;;;;7.90;3.97;;;;;;;;;;5020529;28;20479;-80
2022/12/27 07:01:09;;;;;;;7.93;3.70;;;;;;;;;;5017283;28;20473;-80
2022/12/27 07:03:35;;;;;;;8.00;3.67;;;;;;;;;;5019013;28;20473;-80
2022/12/27 07:06:02;;;;;;;9.90;3.90;;;;;;;;;;5017448;28;20469;-80
2022/12/27 07:08:28;;;;;;;9.77;3.90;;;;;;;;;;5021703;28;20481;-80
2022/12/27 07:11:00;;;;;;;10.23;4.13;;;;;;;;;;5018961;28;20449;-80
2022/12/27 07:13:27;;;;;;;3.60;3.17;;;;;;;;;;5015353;28;20469;-80
2022/12/27 07:15:53;;;;;;;8.63;3.70;;;;;;;;;;5018465;28;20442;-80
2022/12/27 07:18:19;;;;;;;6.70;3.70;;;;;;;;;;5014524;28;20529;-80
2022/12/27 07:20:46;;;;;;;5.97;3.90;;;;;;;;;;5014910;28;20485;-80
2022/12/27 07:23:14;;;;;;;8.63;3.23;;;;;;;;;;5015897;28;20466;-80
2022/12/27 07:25:40;;;;;;;8.87;4.17;;;;;;;;;;5019490;28;20458;-80
2022/12/27 07:28:07;;;;;;;5.30;3.30;;;;;;;;;;5015695;28;20854;-80
2022/12/27 07:30:34;;;;;;;8.90;4.10;;;;;;;;;;5017946;28;21147;-80
2022/12/27 07:33:00;;;;;;;8.70;4.97;;;;;;;;;;5019318;28;20461;-80
2022/12/27 07:35:26;;;;;;;12.67;4.07;;;;;;;;;;5016777;28;20442;-80
2022/12/27 07:37:53;;;;;;;14.70;5.67;;;;;;;;;;5019949;28;20497;-80
2022/12/27 07:40:20;;;;;;;4.07;3.67;;;;;;;;;;5016821;28;20906;-80
2022/12/27 07:42:47;;;;;;;10.50;4.90;;;;;;;;;;5015688;28;20922;-80
2022/12/27 07:45:14;;;;;;;18.07;7.23;;;;;;;;;;5013478;28;20477;-80
2022/12/27 07:47:41;;;;;;;12.50;6.30;;;;;;;;;;5012438;28;20468;-80
2022/12/27 07:50:08;;;;;;;7.03;4.80;;;;;;;;;;5020014;28;20477;-80
2022/12/27 07:52:35;;;;;;;10.90;5.50;;;;;;;;;;5022328;28;20459;-80
2022/12/27 07:55:02;;;;;;;12.63;4.63;;;;;;;;;;5018809;28;20480;-80
2022/12/27 07:57:28;;;;;;;9.60;5.20;;;;;;;;;;5018665;28;20485;-80
2022/12/27 07:59:54;;;;;;;6.60;3.50;;;;;;;;;;5023156;28;20474;-80
2022/12/27 08:02:22;;;;;;;19.90;6.67;;;;;;;;;;5023114;28;20466;-80
2022/12/27 08:04:50;;;;;;;14.80;4.93;;;;;;;;;;5018066;28;20485;-80
2022/12/27 08:07:18;;;;;;;12.97;4.50;;;;;;;;;;5017957;28;20940;-80
2022/12/27 08:09:45;;;;;;;7.20;4.63;;;;;;;;;;5004285;28;20468;-80
2022/12/27 08:12:12;;;;;;;9.80;5.90;;;;;;;;;;5016732;28;20485;-80
2022/12/27 08:14:38;;;;;;;5.73;3.37;;;;;;;;;;5014296;28;20473;-80
2022/12/27 08:17:05;;;;;;;12.77;4.77;;;;;;;;;;5023377;28;20461;-80
2022/12/27 08:19:33;;;;;;;7.10;4.33;;;;;;;;;;5030052;28;20481;-80
2022/12/27 08:21:59;;;;;;;7.13;4.10;;;;;;;;;;5034515;28;21272;-80
2022/12/27 08:24:26;;;;;;;9.60;4.67;;;;;;;;;;5032499;28;20479;-80
2022/12/27 08:26:52;;;;;;;15.47;4.53;;;;;;;;;;5035006;28;20449;-80
2022/12/27 08:29:18;;;;;;;9.83;5.03;;;;;;;;;;5037219;28;20499;-80
2022/12/27 08:31:45;;;;;;;8.83;4.97;;;;;;;;;;5035778;28;20446;-80
2022/12/27 08:34:11;;;;;;;9.30;4.87;;;;;;;;;;5043369;28;20469;-80
2022/12/27 08:36:39;;;;;;;11.10;4.50;;;;;;;;;;5033505;28;20454;-80
2022/12/27 08:39:06;;;;;;;12.87;4.70;;;;;;;;;;5040432;28;20480;-80
2022/12/27 08:41:32;;;;;;;8.50;3.97;;;;;;;;;;5042216;28;20457;-80
2022/12/27 08:43:58;;;;;;;9.97;4.77;;;;;;;;;;5040315;28;20860;-80
2022/12/27 08:46:25;;;;;;;8.83;5.03;;;;;;;;;;5040978;28;20440;-80
2022/12/27 08:48:51;;;;;;;5.03;4.03;;;;;;;;;;5044166;28;20469;-80
2022/12/27 08:51:18;;;;;;;11.50;5.60;;;;;;;;;;5041994;28;20471;-80
2022/12/27 08:53:48;;;;;;;12.40;4.83;;;;;;;;;;5043944;28;20475;-80
2022/12/27 08:56:14;;;;;;;9.43;5.30;;;;;;;;;;5035136;28;20472;-80
2022/12/27 08:58:41;;;;;;;16.77;6.63;;;;;;;;;;5043444;28;20469;-80
2022/12/27 09:01:10;;;;;;;16.50;5.00;;;;;;;;;;5045246;28;20970;-80
2022/12/27 09:03:37;;;;;;;15.00;5.00;;;;;;;;;;5038991;28;20467;-80
2022/12/27 09:06:07;;;;;;;17.67;5.63;;;;;;;;;;5039541;28;20861;-80
2022/12/27 09:08:33;;;;;;;7.07;4.47;;;;;;;;;;5040570;28;20473;-80
2022/12/27 09:11:07;;;;;;;10.07;4.67;;;;;;;;;;5044916;28;20519;-80
2022/12/27 09:13:34;;;;;;;7.00;4.70;;;;;;;;;;5041061;28;20461;-80
2022/12/27 09:16:04;;;;;;;9.63;5.10;;;;;;;;;;5041695;28;20456;-80
2022/12/27 09:18:30;;;;;;;9.13;4.20;;;;;;;;;;5035092;28;20503;-79
2022/12/27 09:21:02;;;;;;;11.40;6.70;;;;;;;;;;5040074;28;20468;-80
2022/12/27 09:23:29;;;;;;;6.30;4.53;;;;;;;;;;5039366;28;20454;-80
2022/12/27 09:25:55;;;;;;;12.00;4.33;;;;;;;;;;5039537;28;20522;-80
2022/12/27 09:28:23;;;;;;;14.10;4.80;;;;;;;;;;5042853;28;20487;-79
2022/12/27 09:30:49;;;;;;;17.60;4.97;;;;;;;;;;5040896;28;20475;-80
2022/12/27 09:33:16;;;;;;;10.83;5.10;;;;;;;;;;5043982;28;20453;-79
2022/12/27 09:35:43;;;;;;;10.40;4.63;;;;;;;;;;5039882;28;20480;-80
2022/12/27 09:38:09;;;;;;;10.07;4.47;;;;;;;;;;5037256;28;20488;-80
2022/12/27 09:40:36;;;;;;;5.43;4.93;;;;;;;;;;5039461;28;20472;-80
2022/12/27 09:43:05;;;;;;;15.93;5.07;;;;;;;;;;5037478;28;20455;-80
2022/12/27 09:45:39;;;;;;;12.90;4.73;;;;;;;;;;5040942;28;20501;-80
2022/12/27 09:48:10;;;;;;;13.00;5.30;;;;;;;;;;5034802;28;20467;-80
2022/12/27 09:50:40;;;;;;;8.20;4.43;;;;;;;;;;5040501;28;20478;-80
2022/12/27 09:53:12;;;;;;;15.23;5.43;;;;;;;;;;5038524;28;20477;-81
2022/12/27 09:55:41;;;;;;;12.93;7.70;;;;;;;;;;5030605;28;20477;-82
2022/12/27 09:58:14;;;;;;;11.30;4.17;;;;;;;;;;5033602;28;20492;-82
2022/12/27 10:00:44;;;;;;;12.20;5.40;;;;;;;;;;5036611;28;20477;-80
2022/12/27 10:03:11;;;;;;;11.90;5.50;;;;;;;;;;5041018;28;20967;-80
2022/12/27 10:05:38;;;;;;;12.03;5.10;;;;;;;;;;5036688;28;20481;-80
2022/12/27 10:08:14;;;;;;;7.80;4.77;;;;;;;;;;5041623;28;21006;-80
2022/12/27 10:10:42;;;;;;;9.37;4.77;;;;;;;;;;5034966;28;20477;-80
2022/12/27 10:13:17;;;;;;;14.20;5.93;;;;;;;;;;5037257;28;20461;-80
2022/12/27 10:15:49;;;;;;;12.90;5.03;;;;;;;;;;5039362;28;20539;-80
2022/12/27 10:18:23;;;;;;;12.03;6.00;;;;;;;;;;5038651;28;20489;-80
2022/12/27 10:20:54;;;;;;;11.33;5.00;;;;;;;;;;5039784;28;20457;-80
2022/12/27 10:23:22;;;;;;;13.87;5.53;;;;;;;;;;5038718;28;20692;-80
2022/12/27 10:25:53;;;;;;;9.80;7.13;;;;;;;;;;5018031;28;20835;-80
2022/12/27 10:28:24;;;;;;;9.00;4.70;;;;;;;;;;5018146;28;20474;-80
2022/12/27 10:30:52;;;;;;;8.80;5.37;;;;;;;;;;5022571;28;20476;-80
2022/12/27 10:33:20;;;;;;;6.77;4.50;;;;;;;;;;5016859;28;20449;-80
2022/12/27 10:35:46;;;;;;;8.43;4.93;;;;;;;;;;5013867;28;20489;-81
2022/12/27 10:38:13;;;;;;;20.50;5.33;;;;;;;;;;5011467;28;20497;-82
2022/12/27 10:40:43;;;;;;;12.87;4.90;;;;;;;;;;5005420;28;20478;-82
2022/12/27 10:43:15;;;;;;;12.60;5.67;;;;;;;;;;5011772;28;20446;-82
2022/12/27 10:45:41;;;;;;;6.87;4.80;;;;;;;;;;5012153;28;20501;-82
2022/12/27 10:48:15;;;;;;;9.00;5.27;;;;;;;;;;5009339;28;21003;-82
2022/12/27 10:50:44;;;;;;;12.40;5.43;;;;;;;;;;5009329;28;20847;-82
2022/12/27 10:53:25;;;;;;;9.97;5.07;;;;;;;;;;5009733;28;20493;-82
2022/12/27 10:56:05;;;;;;;14.00;5.23;;;;;;;;;;5011285;28;20476;-82
2022/12/27 10:58:37;;;;;;;14.63;5.17;;;;;;;;;;5010118;28;20489;-82
2022/12/27 11:01:03;;;;;;;16.70;6.23;;;;;;;;;;5012807;28;20446;-82
2022/12/27 11:03:31;;;;;;;11.63;5.90;;;;;;;;;;5012575;28;21063;-82
2022/12/27 11:06:01;;;;;;;7.23;4.77;;;;;;;;;;5002933;28;20953;-82
2022/12/27 11:08:29;;;;;;;13.97;4.50;;;;;;;;;;5010516;28;20999;-82
2022/12/27 11:11:13;;;;;;;12.13;4.17;;;;;;;;;;5012262;28;20480;-82
2022/12/27 11:13:40;;;;;;;10.57;5.00;;;;;;;;;;5004889;28;20503;-82
2022/12/27 11:16:12;;;;;;;11.53;4.87;;;;;;;;;;5010326;28;20955;-82
2022/12/27 11:18:44;;;;;;;14.83;4.50;;;;;;;;;;5011405;28;20888;-82
2022/12/27 11:21:12;;;;;;;6.67;4.70;;;;;;;;;;5012417;28;21034;-82
2022/12/27 11:23:43;;;;;;;12.57;4.73;;;;;;;;;;5016122;28;20461;-82
2022/12/27 11:26:17;;;;;;;7.77;4.13;;;;;;;;;;5011054;28;20453;-82
2022/12/27 11:28:44;;;;;;;12.60;4.13;;;;;;;;;;5012480;28;20476;-82
2022/12/27 11:31:13;;;;;;;17.40;5.33;;;;;;;;;;5010905;28;20889;-81
2022/12/27 11:33:42;;;;;;;10.50;3.70;;;;;;;;;;5013052;28;21042;-82
2022/12/27 11:36:09;;;;;;;6.83;3.93;;;;;;;;;;5012711;28;20892;-82
2022/12/27 11:38:36;;;;;;;13.50;4.57;;;;;;;;;;5008232;28;20573;-82
2022/12/27 11:41:05;;;;;;;11.10;4.83;;;;;;;;;;5019671;28;20462;-80
2022/12/27 11:43:33;;;;;;;10.17;4.10;;;;;;;;;;5017279;28;20505;-80
2022/12/27 11:46:00;;;;;;;13.70;4.87;;;;;;;;;;5016908;28;20453;-80
2022/12/27 11:48:28;;;;;;;13.70;5.20;;;;;;;;;;5018674;28;20985;-80
2022/12/27 11:51:10;;;;;;;11.80;4.33;;;;;;;;;;5021766;28;20456;-80
2022/12/27 11:53:48;;;;;;;8.30;4.00;;;;;;;;;;5020309;28;20476;-80
2022/12/27 11:56:19;;;;;;;8.90;4.60;;;;;;;;;;5018633;28;20442;-80
2022/12/27 11:59:20;;;;;;;8.93;4.07;;;;;;;;;;5022324;28;20463;-80
2022/12/27 12:02:05;;;;;;;13.97;4.87;;;;;;;;;;5021523;28;20966;-80
2022/12/27 12:04:39;;;;;;;10.10;4.20;;;;;;;;;;5013241;28;20484;-80
2022/12/27 12:07:14;;;;;;;18.60;4.53;;;;;;;;;;5019990;28;20853;-80
2022/12/27 12:09:49;;;;;;;12.97;4.00;;;;;;;;;;5017178;28;20480;-80
2022/12/27 12:12:26;;;;;;;11.17;4.53;;;;;;;;;;5023622;28;20457;-80
2022/12/27 12:15:06;;;;;;;12.90;3.97;;;;;;;;;;5025402;28;20496;-80
2022/12/27 12:17:51;;;;;;;12.40;4.00;;;;;;;;;;5017726;28;20469;-80
2022/12/27 12:20:42;;;;;;;10.23;4.60;;;;;;;;;;5022153;28;20484;-80
2022/12/27 12:23:25;;;;;;;10.23;4.37;;;;;;;;;;5019104;28;20484;-80
2022/12/27 12:26:04;;;;;;;11.93;4.67;;;;;;;;;;5020131;28;20842;-80
2022/12/27 12:28:44;;;;;;;10.63;4.97;;;;;;;;;;5024146;28;20489;-80
2022/12/27 12:31:18;;;;;;;12.57;4.90;;;;;;;;;;5016891;28;20446;-80
2022/12/27 12:33:52;;;;;;;20.00;5.30;;;;;;;;;;5020379;28;20469;-81
2022/12/27 12:36:26;;;;;;;13.53;4.20;;;;;;;;;;5022552;28;20959;-80
2022/12/27 12:39:02;;;;;;;14.73;5.00;;;;;;;;;;5018751;28;20486;-80
2022/12/27 12:41:40;;;;;;;10.27;4.17;;;;;;;;;;5018523;28;20467;-80
2022/12/27 12:44:25;;;;;;;8.77;4.70;;;;;;;;;;5020419;28;20473;-80
2022/12/27 12:46:55;;;;;;;14.00;5.20;;;;;;;;;;5017829;28;20458;-80
2022/12/27 12:49:46;;;;;;;16.50;6.37;;;;;;;;;;5019513;28;20828;-80
2022/12/27 12:52:23;;;;;;;11.87;6.73;;;;;;;;;;5000241;28;20459;-80
2022/12/27 12:54:57;;;;;;;17.27;4.97;;;;;;;;;;5020054;28;20481;-80
2022/12/27 12:57:32;;;;;;;15.23;6.07;;;;;;;;;;5021132;28;20489;-80
2022/12/27 13:00:11;;;;;;;20.13;6.13;;;;;;;;;;5022960;28;20477;-80
2022/12/27 13:02:48;;;;;;;10.43;4.80;;;;;;;;;;5013976;28;20517;-80
2022/12/27 13:05:18;;;;;;;13.60;5.43;;;;;;;;;;5014342;28;20487;-80
2022/12/27 13:07:56;;;;;;;18.00;5.30;;;;;;;;;;5022750;28;20466;-80
2022/12/27 13:10:37;;;;;;;14.60;4.90;;;;;;;;;;5015271;28;20477;-80
2022/12/27 13:13:08;;;;;;;12.13;4.90;;;;;;;;;;5022345;28;20461;-80
2022/12/27 13:15:41;;;;;;;11.83;4.70;;;;;;;;;;5017150;28;20489;-81
2022/12/27 13:18:16;;;;;;;10.07;5.03;;;;;;;;;;5016145;28;20492;-80
2022/12/27 13:20:51;;;;;;;17.83;5.80;;;;;;;;;;5018791;28;20478;-80
2022/12/27 13:23:22;;;;;;;9.90;5.27;;;;;;;;;;5017717;28;20581;-80
2022/12/27 13:25:53;;;;;;;12.87;6.10;;;;;;;;;;5021745;28;20458;-80
2022/12/27 13:28:31;;;;;;;11.90;5.47;;;;;;;;;;5024190;28;20480;-80
2022/12/27 13:30:59;;;;;;;20.70;7.07;;;;;;;;;;5024487;28;20453;-80
2022/12/27 13:33:30;;;;;;;27.40;6.07;;;;;;;;;;5021920;28;20854;-80
2022/12/27 13:36:03;;;;;;;11.90;4.67;;;;;;;;;;5018590;28;20459;-81
2022/12/27 13:39:00;;;;;;;13.63;5.77;;;;;;;;;;5022794;28;20469;-80
2022/12/27 13:41:37;;;;;;;12.97;4.47;;;;;;;;;;5019862;28;20451;-80
2022/12/27 13:44:12;;;;;;;7.97;4.67;;;;;;;;;;5015732;28;20470;-80
2022/12/27 13:46:51;;;;;;;8.90;4.40;;;;;;;;;;5024531;28;20472;-80
2022/12/27 13:49:32;;;;;;;13.20;4.77;;;;;;;;;;5019429;28;20882;-80
2022/12/27 13:52:06;;;;;;;13.70;6.23;;;;;;;;;;5021954;28;20446;-80
2022/12/27 13:54:50;;;;;;;16.00;5.90;;;;;;;;;;5012201;28;20481;-81
2022/12/27 13:57:25;;;;;;;12.13;5.53;;;;;;;;;;5018543;28;20810;-80
2022/12/27 14:00:03;;;;;;;16.23;5.10;;;;;;;;;;5022704;28;20478;-80
2022/12/27 14:02:50;;;;;;;29.70;10.07;;;;;;;;;;5016813;28;20458;-80
2022/12/27 14:05:35;;;;;;;22.40;8.70;;;;;;;;;;5016224;28;20566;-80
2022/12/27 14:08:09;;;;;;;18.53;7.30;;;;;;;;;;5019059;28;20519;-80
2022/12/27 14:10:36;;;;;;;26.33;10.40;;;;;;;;;;5016470;28;20478;-80
2022/12/27 14:13:10;;;;;;;23.93;9.17;;;;;;;;;;5019659;28;20576;-80
2022/12/27 14:15:49;;;;;;;15.90;6.53;;;;;;;;;;5018030;28;20481;-80
2022/12/27 14:18:33;;;;;;;23.20;12.27;;;;;;;;;;5018167;28;20477;-80
2022/12/27 14:21:09;;;;;;;22.67;10.60;;;;;;;;;;5018465;28;20825;-80
2022/12/27 14:23:42;;;;;;;13.57;5.83;;;;;;;;;;5014276;28;20449;-80
2022/12/27 14:26:32;;;;;;;17.27;4.80;;;;;;;;;;5019964;28;20804;-80
2022/12/27 14:29:17;;;;;;;9.40;5.80;;;;;;;;;;5018232;28;20472;-80
2022/12/27 14:32:07;;;;;;;16.00;7.73;;;;;;;;;;5019843;28;20473;-80
2022/12/27 14:34:51;;;;;;;21.90;7.23;;;;;;;;;;5007383;28;20484;-80
2022/12/27 14:37:28;;;;;;;14.83;7.70;;;;;;;;;;5016570;28;20465;-80
2022/12/27 14:40:23;;;;;;;12.03;5.73;;;;;;;;;;5016574;28;20482;-80
2022/12/27 14:43:08;;;;;;;12.17;5.70;;;;;;;;;;5018407;28;20462;-80
2022/12/27 14:45:52;;;;;;;21.20;5.17;;;;;;;;;;5018735;28;20478;-80
2022/12/27 14:48:40;;;;;;;9.63;5.60;;;;;;;;;;5018839;28;20485;-80
2022/12/27 14:51:25;;;;;;;9.03;4.80;;;;;;;;;;5017712;28;20476;-80
2022/12/27 14:54:19;;;;;;;11.83;4.83;;;;;;;;;;5019608;28;20520;-80
2022/12/27 14:56:51;;;;;;;10.90;4.30;;;;;;;;;;4998031;28;20453;-81
2022/12/27 14:59:26;;;;;;;8.77;4.33;;;;;;;;;;5017443;28;20493;-80
2022/12/27 15:01:57;;;;;;;6.70;4.60;;;;;;;;;;5017653;28;20452;-80
2022/12/27 15:04:49;;;;;;;13.73;4.80;;;;;;;;;;5015009;28;20489;-80
2022/12/27 15:07:19;;;;;;;10.87;4.83;;;;;;;;;;5009241;28;20450;-80
2022/12/27 15:09:50;;;;;;;18.13;5.67;;;;;;;;;;5015218;28;20462;-80
2022/12/27 15:12:23;;;;;;;11.93;5.27;;;;;;;;;;5017313;28;20439;-80
2022/12/27 15:15:00;;;;;;;10.40;6.53;;;;;;;;;;5013871;28;20474;-80
2022/12/27 15:17:35;;;;;;;11.93;5.13;;;;;;;;;;5017877;28;20478;-80
2022/12/27 15:20:09;;;;;;;11.20;5.20;;;;;;;;;;5013060;28;20488;-80
2022/12/27 15:22:45;;;;;;;8.23;5.50;;;;;;;;;;5021735;28;20468;-80
2022/12/27 15:25:24;;;;;;;17.50;7.03;;;;;;;;;;5016953;28;20489;-80
2022/12/27 15:27:55;;;;;;;18.97;6.30;;;;;;;;;;5012882;28;20470;-80
2022/12/27 15:30:24;;;;;;;15.20;5.17;;;;;;;;;;5019475;28;20469;-80
2022/12/27 15:32:54;;;;;;;23.23;8.50;;;;;;;;;;5017152;28;20457;-80
2022/12/27 15:35:32;;;;;;;18.63;6.37;;;;;;;;;;5015400;28;20491;-80
2022/12/27 15:38:08;;;;;;;14.17;6.10;;;;;;;;;;5017282;28;20541;-80
2022/12/27 15:40:53;;;;;;;10.43;6.70;;;;;;;;;;5010427;28;20528;-80
2022/12/27 15:43:28;;;;;;;12.27;6.10;;;;;;;;;;5014473;28;20955;-80
2022/12/27 15:46:03;;;;;;;18.63;6.90;;;;;;;;;;5014433;28;20534;-80
2022/12/27 15:48:52;;;;;;;12.20;6.73;;;;;;;;;;5019901;28;20469;-80
2022/12/27 15:51:25;;;;;;;15.63;5.90;;;;;;;;;;5018803;28;20521;-80
2022/12/27 15:54:02;;;;;;;10.40;6.07;;;;;;;;;;5024905;28;20477;-80
2022/12/27 15:56:43;;;;;;;9.10;6.03;;;;;;;;;;5022975;28;20612;-80
2022/12/27 15:59:28;;;;;;;15.37;7.47;;;;;;;;;;5021485;28;20489;-80
2022/12/27 16:02:25;;;;;;;11.87;7.43;;;;;;;;;;5026432;28;20471;-80
2022/12/27 16:04:55;;;;;;;14.67;6.73;;;;;;;;;;4963873;28;20473;-80
2022/12/27 16:07:35;;;;;;;13.30;7.87;;;;;;;;;;5010420;28;20457;-80
2022/12/27 16:10:26;;;;;;;14.70;6.63;;;;;;;;;;5025014;28;20469;-80
2022/12/27 16:12:53;;;;;;;12.80;8.33;;;;;;;;;;5019031;28;20457;-80
2022/12/27 16:15:36;;;;;;;12.93;6.90;;;;;;;;;;5021663;28;20549;-80
2022/12/27 16:18:03;;;;;;;10.47;6.20;;;;;;;;;;5020768;28;20489;-80
2022/12/27 16:20:31;;;;;;;13.10;7.30;;;;;;;;;;5016525;28;20474;-80
2022/12/27 16:22:59;;;;;;;13.80;7.60;;;;;;;;;;5020028;28;20442;-80
2022/12/27 16:25:27;;;;;;;14.40;7.27;;;;;;;;;;5017831;28;20477;-81
2022/12/27 16:27:56;;;;;;;17.50;7.60;;;;;;;;;;5017457;28;20478;-79
2022/12/27 16:30:33;;;;;;;16.57;8.23;;;;;;;;;;5018299;28;20678;-80
2022/12/27 16:33:02;;;;;;;20.17;7.70;;;;;;;;;;5018758;28;20465;-80
2022/12/27 16:35:29;;;;;;;16.13;9.70;;;;;;;;;;5018951;28;20475;-79
2022/12/27 16:38:02;;;;;;;28.07;14.03;;;;;;;;;;5023894;28;20477;-80